createdAt,value
2023-11-30T00:00:17.295Z,1020.572248
2023-11-30T00:05:16.338Z,1020.511365
2023-11-30T00:10:17.214Z,1020.411260
2023-11-30T00:15:16.005Z,1020.290766
2023-11-30T00:20:16.110Z,1020.311410
2023-11-30T00:25:15.964Z,1020.232503
2023-11-30T00:30:15.823Z,1020.273216
2023-11-30T00:35:16.090Z,1020.252731
2023-11-30T00:40:15.867Z,1020.133571
2023-11-30T00:45:16.266Z,1020.173898
2023-11-30T00:50:16.510Z,1020.253253
2023-11-30T00:55:15.847Z,1020.193668
2023-11-30T01:00:16.751Z,1020.213913
2023-11-30T01:05:16.750Z,1020.173158
2023-11-30T01:10:16.117Z,1020.151979
2023-11-30T01:15:16.978Z,1020.151989
2023-11-30T01:20:16.288Z,1020.052122
2023-11-30T01:25:16.703Z,1020.091057
2023-11-30T01:30:16.290Z,1020.150152
2023-11-30T01:35:16.736Z,1020.190152
2023-11-30T01:40:16.644Z,1020.109258
2023-11-30T01:45:16.752Z,1020.127720
2023-11-30T01:50:15.833Z,1020.107142
2023-11-30T01:55:16.123Z,1020.107101
2023-11-30T02:00:16.422Z,1019.986831
2023-11-30T02:05:16.228Z,1019.946957
2023-11-30T02:10:17.104Z,1019.946077
2023-11-30T02:15:16.536Z,1019.865728
2023-11-30T02:20:16.442Z,1019.846086
2023-11-30T02:25:15.909Z,1019.806657
2023-11-30T02:30:16.472Z,1019.770544
2023-11-30T02:35:16.357Z,1019.733927
2023-11-30T02:40:16.482Z,1019.631223
2023-11-30T02:45:32.316Z,1019.630820
2023-11-30T02:50:15.880Z,1019.471763
2023-11-30T02:55:16.452Z,1019.534406
2023-11-30T03:00:16.752Z,1019.517133
2023-11-30T03:05:15.956Z,1019.495483
2023-11-30T03:10:16.047Z,1019.516321
2023-11-30T03:15:17.106Z,1019.493826
2023-11-30T03:20:16.436Z,1019.491257
2023-11-30T03:25:16.089Z,1019.474564
2023-11-30T03:30:16.216Z,1019.477915
2023-11-30T03:35:16.840Z,1019.378767
2023-11-30T03:40:15.947Z,1019.339021
2023-11-30T03:45:18.579Z,1019.359612
2023-11-30T03:50:16.231Z,1019.299745
2023-11-30T03:55:17.983Z,1019.279476
2023-11-30T04:00:16.117Z,1019.300139
2023-11-30T04:05:17.749Z,1019.279798
2023-11-30T04:10:15.920Z,1019.299516
2023-11-30T04:15:16.110Z,1019.299185
2023-11-30T04:20:17.356Z,1019.197608
2023-11-30T04:25:15.793Z,1019.255836
2023-11-30T04:30:16.007Z,1019.374781
2023-11-30T04:35:17.116Z,1019.272917
2023-11-30T04:40:16.222Z,1019.316134
2023-11-30T04:45:16.042Z,1019.277061
2023-11-30T04:50:16.170Z,1019.255651
2023-11-30T04:55:15.995Z,1019.297720
2023-11-30T05:00:15.773Z,1019.299596
2023-11-30T05:05:16.244Z,1019.181136
2023-11-30T05:10:16.589Z,1019.121512
2023-11-30T05:15:15.892Z,1018.979450
2023-11-30T05:20:15.745Z,1019.079546
2023-11-30T05:25:15.944Z,1019.078432
2023-11-30T05:30:16.500Z,1019.038394
2023-11-30T05:35:16.552Z,1018.996464
2023-11-30T05:40:16.214Z,1018.956417
2023-11-30T05:45:15.897Z,1018.915451
2023-11-30T05:50:16.054Z,1018.936125
2023-11-30T05:55:16.534Z,1018.956212
2023-11-30T06:00:16.871Z,1018.917424
2023-11-30T06:05:17.097Z,1018.957674
2023-11-30T06:10:15.999Z,1018.876665
2023-11-30T06:15:17.451Z,1018.797382
2023-11-30T06:20:16.142Z,1018.816148
2023-11-30T06:25:16.252Z,1018.735127
2023-11-30T06:30:15.986Z,1018.636866
2023-11-30T06:35:16.896Z,1018.736330
2023-11-30T06:40:16.341Z,1018.534572
2023-11-30T06:45:16.698Z,1018.655375
2023-11-30T06:50:16.367Z,1018.614291
2023-11-30T06:55:16.571Z,1018.572792
2023-11-30T07:00:16.889Z,1018.534308
2023-11-30T07:05:15.874Z,1018.516300
2023-11-30T07:10:16.131Z,1018.436619
2023-11-30T07:15:16.631Z,1018.316880
2023-11-30T07:20:17.384Z,1018.218533
2023-11-30T07:25:16.369Z,1018.280148
2023-11-30T07:30:16.053Z,1018.298825
2023-11-30T07:35:16.209Z,1018.319678
2023-11-30T07:40:16.594Z,1018.299337
2023-11-30T07:45:17.424Z,1018.278129
2023-11-30T07:50:16.003Z,1018.177230
2023-11-30T07:55:16.242Z,1018.184298
2023-11-30T08:00:17.195Z,1018.085356
2023-11-30T08:05:15.837Z,1017.883294
2023-11-30T08:10:16.727Z,1017.961702
2023-11-30T08:15:16.042Z,1017.980422
2023-11-30T08:20:16.347Z,1017.880492
2023-11-30T08:25:16.125Z,1017.699519
2023-11-30T08:30:16.602Z,1017.621913
2023-11-30T08:35:16.027Z,1017.724752
2023-11-30T08:40:18.355Z,1017.645420
2023-11-30T08:45:18.065Z,1017.563175
2023-11-30T08:50:16.517Z,1017.520350
2023-11-30T08:55:16.618Z,1017.438316
2023-11-30T09:00:20.401Z,1017.377040
2023-11-30T09:05:16.664Z,1017.315370
2023-11-30T09:10:16.090Z,1017.352994
2023-11-30T09:15:16.445Z,1017.352214
2023-11-30T09:20:16.021Z,1017.331332
2023-11-30T09:25:15.974Z,1017.231004
2023-11-30T09:30:16.143Z,1017.154016
2023-11-30T09:35:16.277Z,1017.014667
2023-11-30T09:40:15.967Z,1017.014795
2023-11-30T09:45:16.336Z,1017.016051
2023-11-30T09:50:15.944Z,1017.016128
2023-11-30T09:55:16.258Z,1016.877235
2023-11-30T10:00:18.065Z,1016.837245
2023-11-30T10:05:17.756Z,1016.915439
2023-11-30T10:10:15.864Z,1016.877550
2023-11-30T10:15:16.059Z,1016.858000
2023-11-30T10:20:17.196Z,1016.796935
2023-11-30T10:25:15.932Z,1016.755754
2023-11-30T10:30:17.919Z,1016.655253
2023-11-30T10:35:16.067Z,1016.454083
2023-11-30T10:40:19.159Z,1016.475646
2023-11-30T10:45:17.500Z,1016.418297
2023-11-30T10:50:16.345Z,1016.277476
2023-11-30T10:55:15.725Z,1016.316319
2023-11-30T11:00:16.490Z,1016.255422
2023-11-30T11:05:15.742Z,1016.136127
2023-11-30T11:10:19.789Z,1016.178214
2023-11-30T11:15:18.143Z,1016.158505
2023-11-30T11:20:18.009Z,1016.078971
2023-11-30T11:25:16.724Z,1016.017964
2023-11-30T11:30:15.923Z,1015.997356
2023-11-30T11:35:15.777Z,1015.938114
2023-11-30T11:40:17.030Z,1015.917980
2023-11-30T11:45:16.983Z,1015.778145
2023-11-30T11:50:16.701Z,1015.856698
2023-11-30T11:55:16.643Z,1015.859158
2023-11-30T12:00:15.981Z,1015.822981
2023-11-30T12:05:15.940Z,1015.642581
2023-11-30T12:10:15.744Z,1015.681115
2023-11-30T12:15:16.704Z,1015.698048
2023-11-30T12:20:16.143Z,1015.677267
2023-11-30T12:25:16.363Z,1015.614982
2023-11-30T12:30:16.066Z,1015.596662
2023-11-30T12:35:18.102Z,1015.458111
2023-11-30T12:40:17.099Z,1015.357982
2023-11-30T12:45:15.919Z,1015.397915
2023-11-30T12:50:16.157Z,1015.356929
2023-11-30T12:55:18.705Z,1015.257199
2023-11-30T13:00:16.827Z,1015.215044
2023-11-30T13:05:15.873Z,1015.177842
2023-11-30T13:10:16.261Z,1015.097290
2023-11-30T13:15:17.422Z,1015.076675
2023-11-30T13:20:16.051Z,1015.053926
2023-11-30T13:25:16.542Z,1015.011820
2023-11-30T13:30:16.595Z,1014.928838
2023-11-30T13:35:16.473Z,1014.910240
2023-11-30T13:40:16.547Z,1014.830846
2023-11-30T13:45:16.760Z,1014.770106
2023-11-30T13:50:26.041Z,1014.790049
2023-11-30T13:55:16.592Z,1014.711431
2023-11-30T14:00:15.875Z,1014.612228
2023-11-30T14:05:16.157Z,1014.553953
2023-11-30T14:10:15.919Z,1014.533809
2023-11-30T14:15:15.892Z,1014.492779
2023-11-30T14:20:15.961Z,1014.432306
2023-11-30T14:25:16.846Z,1014.453822
2023-11-30T14:30:17.396Z,1014.454379
2023-11-30T14:35:17.347Z,1014.396596
2023-11-30T14:40:17.495Z,1014.275293
2023-11-30T14:45:15.939Z,1014.355236
2023-11-30T14:50:18.024Z,1014.375784
2023-11-30T14:55:18.827Z,1014.334954
2023-11-30T15:00:17.801Z,1014.292965
2023-11-30T15:05:20.320Z,1014.356851
2023-11-30T15:10:17.584Z,1014.356191
2023-11-30T15:15:16.946Z,1014.397572
2023-11-30T15:20:20.114Z,1014.238597
2023-11-30T15:25:17.561Z,1014.157697
2023-11-30T15:30:17.611Z,1014.076410
2023-11-30T15:35:17.986Z,1013.974724
2023-11-30T15:40:16.824Z,1013.894195
2023-11-30T15:45:15.978Z,1013.732843
2023-11-30T15:50:16.230Z,1013.793737
2023-11-30T15:55:16.217Z,1013.794065
2023-11-30T16:00:15.870Z,1013.673399
2023-11-30T16:05:17.311Z,1013.532807
2023-11-30T16:10:16.776Z,1013.431284
2023-11-30T16:15:15.762Z,1013.352471
2023-11-30T16:20:16.780Z,1013.313313
2023-11-30T16:25:17.332Z,1013.132825
2023-11-30T16:30:18.678Z,1013.093765
2023-11-30T16:35:18.933Z,1013.053940
2023-11-30T16:40:15.736Z,1013.052342
2023-11-30T16:45:15.867Z,1013.051816
2023-11-30T16:50:16.333Z,1013.031665
2023-11-30T16:55:15.950Z,1012.990539
2023-11-30T17:00:16.555Z,1012.988117
2023-11-30T17:05:15.744Z,1013.022918
2023-11-30T17:10:15.966Z,1013.042181
2023-11-30T17:15:17.614Z,1013.040006
2023-11-30T17:20:15.773Z,1012.982143
2023-11-30T17:25:16.410Z,1012.924289
2023-11-30T17:30:23.663Z,1012.864583
2023-11-30T17:35:20.452Z,1012.823916
2023-11-30T17:40:17.276Z,1012.782499
2023-11-30T17:45:23.744Z,1012.782211
2023-11-30T17:50:16.000Z,1012.761013
2023-11-30T17:55:18.208Z,1012.717987
2023-11-30T18:00:17.575Z,1012.680127
2023-11-30T18:05:15.880Z,1012.640523
2023-11-30T18:10:16.083Z,1012.617922
2023-11-30T18:15:20.601Z,1012.616572
2023-11-30T18:20:21.024Z,1012.650325
2023-11-30T18:25:18.115Z,1012.605296
2023-11-30T18:30:16.478Z,1012.627489
2023-11-30T18:35:17.803Z,1012.652414
2023-11-30T18:40:16.990Z,1012.553140
2023-11-30T18:45:15.920Z,1012.491240
2023-11-30T18:50:16.019Z,1012.427522
2023-11-30T18:55:17.409Z,1012.346812
2023-11-30T19:00:16.589Z,1012.228477
2023-11-30T19:05:16.529Z,1012.088548
2023-11-30T19:10:17.507Z,1012.147686
2023-11-30T19:15:16.448Z,1012.167265
2023-11-30T19:20:16.748Z,1012.166175
2023-11-30T19:25:17.398Z,1012.140623
2023-11-30T19:30:17.622Z,1012.060188
2023-11-30T19:35:18.370Z,1012.007184
2023-11-30T19:40:16.440Z,1012.006635
2023-11-30T19:45:18.755Z,1011.842765
2023-11-30T19:50:17.104Z,1011.782709
2023-11-30T19:55:17.013Z,1011.619193
2023-11-30T20:00:16.289Z,1011.620205
2023-11-30T20:05:16.953Z,1011.477747
2023-11-30T20:10:16.176Z,1011.520755
2023-11-30T20:15:16.737Z,1011.484611
2023-11-30T20:20:15.919Z,1011.362668
2023-11-30T20:25:16.693Z,1011.343933
2023-11-30T20:30:16.210Z,1011.343572
2023-11-30T20:35:16.234Z,1011.241102
2023-11-30T20:40:16.485Z,1011.161082
2023-11-30T20:45:16.079Z,1011.060439
2023-11-30T20:50:16.494Z,1011.097837
2023-11-30T20:55:16.266Z,1011.014291
2023-11-30T21:00:15.785Z,1010.933532
2023-11-30T21:05:16.209Z,1010.953787
2023-11-30T21:10:16.462Z,1010.896936
2023-11-30T21:15:16.225Z,1010.875707
2023-11-30T21:20:16.924Z,1010.776554
2023-11-30T21:25:16.618Z,1010.736221
2023-11-30T21:30:16.830Z,1010.715249
2023-11-30T21:35:16.731Z,1010.631923
2023-11-30T21:40:15.926Z,1010.630177
2023-11-30T21:45:16.172Z,1010.552368
2023-11-30T21:50:16.867Z,1010.531516
2023-11-30T21:55:16.259Z,1010.472532
2023-11-30T22:00:17.299Z,1010.492508
2023-11-30T22:05:24.103Z,1010.528242
2023-11-30T22:10:16.181Z,1010.509974
2023-11-30T22:15:15.842Z,1010.471864
2023-11-30T22:20:17.655Z,1010.328606
2023-11-30T22:25:16.184Z,1010.390306
2023-11-30T22:30:16.048Z,1010.351275
2023-11-30T22:35:17.445Z,1010.331372
2023-11-30T22:40:16.621Z,1010.309758
2023-11-30T22:45:15.837Z,1010.273595
2023-11-30T22:50:16.343Z,1010.255281
2023-11-30T22:55:16.285Z,1010.356139
2023-11-30T23:00:16.260Z,1010.355329
2023-11-30T23:05:16.294Z,1010.335708
2023-11-30T23:10:15.777Z,1010.355039
2023-11-30T23:15:16.643Z,1010.295602
2023-11-30T23:20:16.420Z,1010.355501
2023-11-30T23:25:15.933Z,1010.296980
2023-11-30T23:30:16.889Z,1010.300197
2023-11-30T23:35:16.010Z,1010.301479
2023-11-30T23:40:16.493Z,1010.322828
2023-11-30T23:45:15.940Z,1010.303128
2023-11-30T23:50:15.960Z,1010.303300
2023-11-30T23:55:16.247Z,1010.342682
